createdAt,value
2019-05-02T00:02:00.133Z,71.10
2019-05-02T00:04:28.496Z,71.20
2019-05-02T00:07:04.047Z,71.20
2019-05-02T00:09:33.557Z,72.30
2019-05-02T00:12:02.101Z,71.90
2019-05-02T00:14:31.081Z,71.90
2019-05-02T00:16:59.718Z,72.00
2019-05-02T00:19:28.023Z,71.90
2019-05-02T00:21:57.309Z,72.70
2019-05-02T00:24:25.665Z,72.10
2019-05-02T00:26:56.116Z,72.20
2019-05-02T00:29:25.059Z,72.20
2019-05-02T00:31:53.520Z,72.30
2019-05-02T00:34:21.852Z,72.70
2019-05-02T00:36:50.169Z,72.80
2019-05-02T00:39:18.435Z,73.00
2019-05-02T00:41:46.929Z,73.30
2019-05-02T00:44:15.260Z,73.60
2019-05-02T00:46:44.005Z,74.20
2019-05-02T00:49:12.262Z,74.80
2019-05-02T00:51:40.516Z,75.20
2019-05-02T00:54:08.795Z,75.40
2019-05-02T00:56:40.194Z,75.90
2019-05-02T00:59:08.617Z,76.30
2019-05-02T01:01:44.730Z,76.70
2019-05-02T01:04:14.678Z,77.40
2019-05-02T01:06:44.702Z,77.70
2019-05-02T01:09:13.431Z,78.40
2019-05-02T01:11:41.700Z,79.20
2019-05-02T01:14:10.036Z,79.80
2019-05-02T01:16:38.393Z,80.10
2019-05-02T01:19:06.676Z,80.60
2019-05-02T01:21:38.821Z,81.00
2019-05-02T01:24:05.003Z,81.30
2019-05-02T01:26:38.140Z,81.30
2019-05-02T01:29:17.278Z,81.50
2019-05-02T01:31:49.888Z,81.90
2019-05-02T01:34:35.122Z,81.80
2019-05-02T01:37:05.042Z,81.90
2019-05-02T01:39:33.493Z,82.80
2019-05-02T01:42:04.123Z,82.40
2019-05-02T01:44:36.309Z,82.20
2019-05-02T01:47:03.020Z,82.50
2019-05-02T01:49:51.932Z,82.30
2019-05-02T01:52:23.799Z,82.40
2019-05-02T01:54:50.936Z,82.40
2019-05-02T01:57:19.418Z,82.40
2019-05-02T01:59:47.789Z,82.40
2019-05-02T02:02:16.112Z,82.50
2019-05-02T02:04:44.363Z,82.50
2019-05-02T02:07:14.973Z,82.50
2019-05-02T02:09:44.479Z,82.50
2019-05-02T02:12:13.678Z,82.70
2019-05-02T02:14:41.964Z,83.10
2019-05-02T02:17:15.327Z,82.80
2019-05-02T02:19:42.084Z,83.00
2019-05-02T02:22:12.027Z,83.00
2019-05-02T02:24:50.720Z,83.00
2019-05-02T02:27:19.985Z,83.00
2019-05-02T02:29:49.038Z,83.90
2019-05-02T02:32:19.978Z,83.00
2019-05-02T02:34:47.632Z,83.30
2019-05-02T02:37:15.926Z,83.00
2019-05-02T02:39:48.375Z,83.20
2019-05-02T02:42:14.265Z,83.40
2019-05-02T02:44:44.187Z,83.60
2019-05-02T02:47:18.842Z,83.70
2019-05-02T02:49:42.649Z,83.70
2019-05-02T02:52:11.389Z,84.10
2019-05-02T02:54:43.360Z,84.70
2019-05-02T02:57:21.888Z,85.00
2019-05-02T02:59:39.633Z,84.70
2019-05-02T03:02:10.086Z,84.70
2019-05-02T03:04:43.947Z,84.80
2019-05-02T03:07:09.109Z,84.70
2019-05-02T03:09:37.464Z,84.50
2019-05-02T03:12:22.095Z,84.70
2019-05-02T03:14:54.716Z,84.50
2019-05-02T03:17:26.688Z,84.30
2019-05-02T03:19:54.235Z,84.40
2019-05-02T03:22:23.103Z,84.30
2019-05-02T03:24:51.347Z,85.20
2019-05-02T03:27:19.623Z,84.40
2019-05-02T03:29:47.877Z,84.30
2019-05-02T03:32:31.845Z,85.20
2019-05-02T03:34:51.875Z,84.40
2019-05-02T03:37:16.237Z,84.30
2019-05-02T03:39:49.452Z,84.50
2019-05-02T03:42:14.541Z,84.50
2019-05-02T03:44:49.466Z,84.50
2019-05-02T03:47:12.913Z,84.60
2019-05-02T03:49:48.792Z,84.50
2019-05-02T03:52:11.169Z,84.60
2019-05-02T03:54:48.491Z,84.70
2019-05-02T03:57:09.504Z,84.70
2019-05-02T03:59:39.680Z,84.80
2019-05-02T04:02:14.172Z,84.80
2019-05-02T04:04:37.947Z,84.70
2019-05-02T04:07:06.287Z,84.70
2019-05-02T04:09:39.110Z,84.70
2019-05-02T04:12:05.306Z,84.80
2019-05-02T04:14:38.175Z,84.70
2019-05-02T04:17:03.630Z,84.70
2019-05-02T04:19:34.756Z,84.80
2019-05-02T04:22:08.394Z,84.80
2019-05-02T04:24:32.362Z,85.00
2019-05-02T04:27:00.644Z,84.90
2019-05-02T04:29:31.201Z,84.80
2019-05-02T04:32:04.324Z,84.80
2019-05-02T04:34:28.988Z,84.70
2019-05-02T04:37:01.058Z,84.50
2019-05-02T04:39:28.621Z,84.30
2019-05-02T04:41:58.687Z,84.40
2019-05-02T04:44:32.271Z,84.40
2019-05-02T04:46:59.780Z,84.30
2019-05-02T04:49:29.839Z,84.10
2019-05-02T04:52:04.634Z,84.00
2019-05-02T04:54:31.888Z,84.10
2019-05-02T04:57:01.826Z,83.80
2019-05-02T04:59:28.486Z,83.70
2019-05-02T05:02:00.648Z,83.30
2019-05-02T05:04:27.684Z,83.20
2019-05-02T05:07:00.918Z,82.80
2019-05-02T05:09:27.898Z,82.70
2019-05-02T05:11:58.999Z,82.90
2019-05-02T05:14:32.255Z,82.90
2019-05-02T05:16:57.990Z,83.00
2019-05-02T05:19:30.921Z,83.20
2019-05-02T05:22:04.552Z,83.80
2019-05-02T05:24:38.518Z,83.50
2019-05-02T05:27:08.228Z,83.30
2019-05-02T05:29:37.455Z,83.00
2019-05-02T05:32:09.941Z,83.00
2019-05-02T05:34:37.842Z,82.90
2019-05-02T05:37:11.638Z,82.70
2019-05-02T05:39:37.983Z,82.40
2019-05-02T05:42:05.716Z,82.00
2019-05-02T05:44:33.975Z,82.20
2019-05-02T05:47:02.285Z,82.10
2019-05-02T05:49:30.598Z,81.90
2019-05-02T05:52:00.656Z,81.70
2019-05-02T05:54:33.053Z,81.60
2019-05-02T05:56:58.827Z,83.50
2019-05-02T05:59:31.824Z,82.10
2019-05-02T06:01:57.988Z,81.20
2019-05-02T06:04:32.712Z,81.00
2019-05-02T06:06:59.572Z,80.40
2019-05-02T06:09:30.945Z,79.70
2019-05-02T06:11:56.688Z,79.00
2019-05-02T06:14:26.254Z,78.40
2019-05-02T06:16:54.996Z,78.60
2019-05-02T06:19:23.205Z,78.50
2019-05-02T06:21:51.442Z,78.50
2019-05-02T06:24:19.696Z,78.60
2019-05-02T06:26:49.821Z,78.80
2019-05-02T06:29:20.613Z,78.70
2019-05-02T06:31:49.357Z,78.60
2019-05-02T06:34:17.652Z,78.50
2019-05-02T06:36:46.035Z,78.50
2019-05-02T06:39:14.360Z,78.60
2019-05-02T06:41:42.768Z,78.20
2019-05-02T06:44:11.190Z,78.50
2019-05-02T06:46:39.528Z,78.50
2019-05-02T06:49:07.775Z,78.30
2019-05-02T06:51:36.033Z,78.20
2019-05-02T06:54:04.275Z,78.00
2019-05-02T06:56:32.505Z,78.20
2019-05-02T06:59:02.397Z,77.90
2019-05-02T07:01:30.929Z,77.80
2019-05-02T07:03:59.161Z,78.80
2019-05-02T07:06:27.626Z,77.90
2019-05-02T07:08:59.322Z,78.20
2019-05-02T07:11:26.461Z,78.20
2019-05-02T07:13:54.684Z,78.20
2019-05-02T07:16:37.633Z,78.40
2019-05-02T07:19:01.745Z,78.50
2019-05-02T07:21:29.992Z,78.60
2019-05-02T07:23:58.278Z,78.50
2019-05-02T07:26:26.675Z,78.60
2019-05-02T07:28:54.947Z,78.30
2019-05-02T07:31:23.182Z,78.20
2019-05-02T07:33:51.473Z,78.70
2019-05-02T07:36:19.736Z,78.30
2019-05-02T07:38:47.979Z,78.30
2019-05-02T07:41:16.223Z,78.50
2019-05-02T07:43:44.451Z,78.80
2019-05-02T07:46:16.170Z,78.90
2019-05-02T07:48:43.689Z,79.20
2019-05-02T07:51:12.147Z,79.50
2019-05-02T07:53:44.613Z,79.90
2019-05-02T07:56:12.523Z,80.50
2019-05-02T07:58:46.937Z,79.90
2019-05-02T08:01:13.537Z,79.90
2019-05-02T08:03:40.716Z,80.00
2019-05-02T08:06:09.011Z,80.20
2019-05-02T08:08:37.249Z,80.20
2019-05-02T08:11:05.523Z,80.60
2019-05-02T08:13:33.802Z,81.00
2019-05-02T08:16:02.023Z,81.30
2019-05-02T08:18:31.605Z,81.60
2019-05-02T08:21:00.179Z,81.80
2019-05-02T08:23:28.406Z,82.10
2019-05-02T08:25:56.760Z,82.20
2019-05-02T08:28:26.746Z,82.30
2019-05-02T08:30:56.617Z,82.70
2019-05-02T08:33:29.133Z,83.10
2019-05-02T08:35:55.239Z,83.30
2019-05-02T08:38:23.480Z,83.40
2019-05-02T08:40:51.779Z,83.60
2019-05-02T08:43:20.562Z,84.00
2019-05-02T08:45:48.813Z,84.30
2019-05-02T08:48:17.088Z,84.50
2019-05-02T08:50:45.341Z,85.30
2019-05-02T08:53:14.356Z,85.30
2019-05-02T08:55:45.329Z,85.70
2019-05-02T08:58:14.617Z,86.30
2019-05-02T09:00:43.696Z,86.20
2019-05-02T09:03:11.926Z,86.60
2019-05-02T09:05:45.449Z,86.90
2019-05-02T09:08:14.331Z,87.10
2019-05-02T09:10:42.236Z,87.40
2019-05-02T09:13:10.341Z,87.40
2019-05-02T09:15:40.485Z,87.10
2019-05-02T09:18:08.607Z,87.30
2019-05-02T09:20:36.972Z,87.80
2019-05-02T09:23:05.220Z,88.00
2019-05-02T09:25:33.593Z,87.30
2019-05-02T09:28:01.972Z,87.80
2019-05-02T09:30:30.246Z,87.90
2019-05-02T09:33:04.858Z,88.30
2019-05-02T09:35:28.464Z,88.30
2019-05-02T09:37:56.688Z,88.40
2019-05-02T09:40:25.091Z,88.70
2019-05-02T09:43:00.050Z,89.10
2019-05-02T09:45:27.815Z,88.60
2019-05-02T09:48:04.105Z,87.90
2019-05-02T09:50:29.411Z,87.90
2019-05-02T09:52:54.979Z,88.10
2019-05-02T09:55:50.072Z,88.10
2019-05-02T09:58:19.491Z,88.80
2019-05-02T10:00:46.001Z,88.80
2019-05-02T10:03:14.499Z,88.40
2019-05-02T10:05:43.186Z,88.10
2019-05-02T10:08:13.867Z,88.30
2019-05-02T10:10:45.762Z,88.10
2019-05-02T10:13:12.332Z,88.30
2019-05-02T10:15:42.113Z,88.00
2019-05-02T10:18:14.114Z,87.60
2019-05-02T10:20:41.934Z,87.50
2019-05-02T10:23:11.993Z,87.80
2019-05-02T10:25:46.123Z,87.90
2019-05-02T10:28:12.791Z,88.50
2019-05-02T10:30:42.451Z,87.50
2019-05-02T10:33:12.174Z,87.60
2019-05-02T10:35:43.384Z,87.80
2019-05-02T10:38:18.006Z,88.10
2019-05-02T10:40:42.433Z,87.40
2019-05-02T10:43:11.795Z,87.80
2019-05-02T10:45:42.511Z,87.90
2019-05-02T10:48:22.803Z,87.50
2019-05-02T10:50:48.612Z,87.70
2019-05-02T10:53:16.959Z,87.60
2019-05-02T10:55:45.891Z,87.30
2019-05-02T10:58:15.063Z,87.30
2019-05-02T11:00:45.385Z,87.10
2019-05-02T11:03:15.063Z,86.70
2019-05-02T11:05:58.023Z,86.80
2019-05-02T11:08:27.216Z,86.70
2019-05-02T11:10:55.445Z,87.00
2019-05-02T11:13:42.500Z,86.50
2019-05-02T11:16:28.807Z,86.50
2019-05-02T11:19:02.484Z,86.40
2019-05-02T11:21:32.190Z,86.40
2019-05-02T11:24:02.492Z,86.20
2019-05-02T11:26:32.506Z,85.90
2019-05-02T11:29:02.764Z,85.90
2019-05-02T11:31:32.437Z,85.80
2019-05-02T11:34:01.790Z,85.70
2019-05-02T11:36:32.564Z,85.80
2019-05-02T11:39:09.763Z,85.60
2019-05-02T11:41:31.760Z,85.70
2019-05-02T11:44:00.307Z,85.70
2019-05-02T11:46:28.646Z,85.90
2019-05-02T11:48:58.701Z,86.00
2019-05-02T11:51:27.169Z,86.00
2019-05-02T11:53:59.234Z,86.00
2019-05-02T11:56:25.400Z,86.00
2019-05-02T11:58:53.655Z,86.10
2019-05-02T12:01:34.556Z,86.60
2019-05-02T12:03:52.754Z,85.80
2019-05-02T12:06:22.581Z,85.40
2019-05-02T12:08:52.504Z,85.30
2019-05-02T12:11:22.862Z,85.20
2019-05-02T12:13:54.814Z,84.80
2019-05-02T12:16:23.009Z,85.00
2019-05-02T12:18:53.568Z,85.50
2019-05-02T12:21:22.862Z,84.70
2019-05-02T12:23:52.664Z,84.40
2019-05-02T12:26:22.088Z,84.40
2019-05-02T12:28:52.445Z,84.40
2019-05-02T12:31:28.932Z,84.50
2019-05-02T12:33:57.852Z,84.90
2019-05-02T12:36:26.068Z,84.40
2019-05-02T12:38:55.304Z,84.30
2019-05-02T12:41:25.263Z,85.10
2019-05-02T12:43:53.592Z,84.50
2019-05-02T12:46:22.319Z,84.10
2019-05-02T12:48:51.982Z,83.80
2019-05-02T12:51:22.340Z,83.80
2019-05-02T12:53:52.684Z,83.90
2019-05-02T12:56:22.700Z,83.60
2019-05-02T12:58:52.929Z,83.50
2019-05-02T13:01:22.478Z,83.80
2019-05-02T13:03:52.391Z,83.40
2019-05-02T13:06:21.961Z,83.50
2019-05-02T13:08:52.378Z,83.50
2019-05-02T13:11:26.628Z,83.80
2019-05-02T13:13:54.884Z,83.70
2019-05-02T13:16:23.180Z,83.40
2019-05-02T13:18:51.972Z,83.30
2019-05-02T13:21:24.866Z,83.80
2019-05-02T13:23:54.733Z,82.90
2019-05-02T13:26:26.905Z,82.50
2019-05-02T13:28:52.940Z,83.20
2019-05-02T13:31:22.824Z,82.20
2019-05-02T13:33:52.688Z,82.10
2019-05-02T13:36:58.013Z,82.00
2019-05-02T13:39:33.087Z,81.90
2019-05-02T13:42:01.790Z,81.90
2019-05-02T13:44:43.676Z,81.90
2019-05-02T13:47:13.712Z,81.90
2019-05-02T13:49:53.658Z,82.10
2019-05-02T13:52:12.415Z,82.30
2019-05-02T13:54:42.537Z,82.20
2019-05-02T13:57:12.129Z,81.80
2019-05-02T13:59:41.646Z,81.30
2019-05-02T14:02:31.638Z,81.00
2019-05-02T14:05:02.101Z,80.40
2019-05-02T14:07:32.194Z,80.50
2019-05-02T14:10:02.479Z,80.50
2019-05-02T14:12:47.757Z,80.60
2019-05-02T14:15:17.433Z,80.30
2019-05-02T14:17:45.663Z,80.00
2019-05-02T14:20:13.980Z,80.10
2019-05-02T14:22:42.540Z,79.70
2019-05-02T14:25:12.266Z,79.80
2019-05-02T14:27:42.169Z,79.90
2019-05-02T14:30:12.107Z,79.50
2019-05-02T14:32:42.442Z,79.40
2019-05-02T14:35:28.262Z,79.20
2019-05-02T14:38:13.646Z,79.40
2019-05-02T14:40:45.167Z,79.40
2019-05-02T14:43:15.025Z,79.70
2019-05-02T14:46:03.263Z,78.80
2019-05-02T14:48:41.760Z,78.70
2019-05-02T14:51:07.629Z,78.90
2019-05-02T14:53:35.893Z,79.20
2019-05-02T14:56:12.508Z,80.90
2019-05-02T14:58:42.736Z,81.20
2019-05-02T15:01:16.882Z,80.20
2019-05-02T15:03:42.313Z,78.70
2019-05-02T15:06:11.734Z,78.30
2019-05-02T15:08:42.032Z,78.30
2019-05-02T15:11:12.415Z,78.30
2019-05-02T15:13:43.107Z,78.50
2019-05-02T15:16:17.666Z,78.00
2019-05-02T15:18:41.983Z,77.40
2019-05-02T15:21:16.220Z,77.10
2019-05-02T15:23:42.336Z,77.00
2019-05-02T15:26:13.692Z,77.30
2019-05-02T15:28:42.214Z,77.80
2019-05-02T15:31:27.907Z,76.80
2019-05-02T15:34:05.092Z,76.90
2019-05-02T15:36:32.377Z,76.80
2019-05-02T15:41:32.618Z,76.20
2019-05-02T15:44:01.966Z,76.00
2019-05-02T15:46:31.926Z,76.40
2019-05-02T15:49:01.937Z,76.50
2019-05-02T15:51:30.458Z,76.50
2019-05-02T15:54:08.813Z,76.20
2019-05-02T15:57:00.626Z,76.40
2019-05-02T15:59:37.724Z,76.30
2019-05-02T16:02:05.393Z,76.40
2019-05-02T16:04:35.296Z,76.60
2019-05-02T16:07:06.987Z,77.60
2019-05-02T16:09:33.500Z,79.70
2019-05-02T16:12:03.141Z,81.40
2019-05-02T16:14:34.100Z,83.00
2019-05-02T16:17:03.764Z,82.90
2019-05-02T16:19:33.300Z,82.90
2019-05-02T16:22:22.601Z,82.30
2019-05-02T16:24:53.228Z,82.90
2019-05-02T16:27:25.443Z,82.90
2019-05-02T16:29:52.784Z,82.50
2019-05-02T16:32:25.368Z,82.10
2019-05-02T16:34:55.170Z,82.10
2019-05-02T16:37:23.549Z,81.90
2019-05-02T16:39:51.816Z,81.40
2019-05-02T16:42:20.048Z,81.20
2019-05-02T16:44:48.289Z,81.50
2019-05-02T16:47:16.568Z,81.40
2019-05-02T16:49:47.954Z,81.20
2019-05-02T16:52:16.201Z,81.70
2019-05-02T16:54:44.476Z,82.40
2019-05-02T16:57:17.247Z,83.00
2019-05-02T16:59:42.799Z,83.00
2019-05-02T17:02:12.180Z,81.70
2019-05-02T17:04:42.521Z,81.90
2019-05-02T17:07:12.427Z,80.90
2019-05-02T17:09:48.269Z,80.70
2019-05-02T17:12:16.615Z,80.70
2019-05-02T17:14:51.614Z,81.20
2019-05-02T17:17:17.158Z,81.00
2019-05-02T17:19:45.391Z,80.70
2019-05-02T17:22:16.682Z,80.80
2019-05-02T17:24:43.624Z,81.10
2019-05-02T17:27:12.938Z,81.30
2019-05-02T17:29:43.268Z,80.50
2019-05-02T17:32:11.849Z,80.90
2019-05-02T17:34:42.060Z,81.20
2019-05-02T17:37:13.502Z,81.70
2019-05-02T17:39:42.695Z,81.30
2019-05-02T17:42:12.289Z,81.40
2019-05-02T17:44:41.655Z,80.90
2019-05-02T17:47:10.264Z,80.80
2019-05-02T17:49:38.471Z,80.40
2019-05-02T17:52:11.260Z,81.10
2019-05-02T17:54:38.319Z,80.70
2019-05-02T17:57:06.517Z,81.50
2019-05-02T17:59:37.568Z,81.00
2019-05-02T18:02:06.740Z,81.10
2019-05-02T18:04:35.606Z,81.20
2019-05-02T18:07:03.991Z,82.10
2019-05-02T18:09:35.025Z,81.10
2019-05-02T18:12:02.290Z,81.40
2019-05-02T18:14:30.534Z,81.50
2019-05-02T18:16:58.759Z,81.40
2019-05-02T18:19:26.981Z,81.50
2019-05-02T18:21:58.191Z,81.90
2019-05-02T18:24:26.121Z,82.00
2019-05-02T18:26:54.529Z,81.90
2019-05-02T18:29:22.730Z,82.20
2019-05-02T18:31:52.122Z,81.10
2019-05-02T18:34:25.039Z,80.50
2019-05-02T18:36:52.421Z,81.00
2019-05-02T18:39:22.160Z,80.40
2019-05-02T18:41:51.963Z,79.30
2019-05-02T18:44:21.863Z,78.40
2019-05-02T18:46:51.877Z,77.80
2019-05-02T18:49:21.915Z,78.00
2019-05-02T18:51:53.911Z,77.90
2019-05-02T18:54:21.660Z,78.10
2019-05-02T18:56:54.981Z,77.80
2019-05-02T18:59:22.508Z,77.60
2019-05-02T19:01:52.705Z,78.00
2019-05-02T19:04:22.086Z,78.10
2019-05-02T19:06:51.918Z,77.50
2019-05-02T19:09:24.950Z,77.40
2019-05-02T19:11:52.253Z,77.90
2019-05-02T19:14:22.262Z,77.60
2019-05-02T19:16:51.981Z,77.80
2019-05-02T19:19:22.577Z,77.60
2019-05-02T19:21:51.745Z,78.50
2019-05-02T19:24:20.115Z,78.20
2019-05-02T19:26:49.554Z,78.10
2019-05-02T19:29:26.707Z,78.10
2019-05-02T19:31:54.951Z,77.80
2019-05-02T19:34:26.901Z,77.60
2019-05-02T19:36:58.135Z,76.70
2019-05-02T19:39:24.329Z,76.70
2019-05-02T19:41:53.192Z,76.90
2019-05-02T19:44:28.946Z,76.60
2019-05-02T19:46:51.985Z,76.40
2019-05-02T19:49:22.110Z,75.80
2019-05-02T19:51:56.187Z,75.20
2019-05-02T19:54:21.869Z,74.90
2019-05-02T19:56:52.394Z,75.10
2019-05-02T19:59:24.600Z,74.80
2019-05-02T20:01:52.165Z,74.40
2019-05-02T20:04:22.056Z,74.40
2019-05-02T20:06:50.505Z,74.30
2019-05-02T20:09:18.777Z,74.00
2019-05-02T20:11:47.063Z,73.60
2019-05-02T20:14:15.332Z,73.50
2019-05-02T20:16:46.726Z,73.50
2019-05-02T20:19:17.394Z,73.40
2019-05-02T20:21:46.702Z,73.30
2019-05-02T20:24:19.299Z,72.70
2019-05-02T20:26:46.760Z,72.90
2019-05-02T20:29:14.963Z,72.50
2019-05-02T20:31:43.265Z,72.10
2019-05-02T20:34:11.847Z,72.10
2019-05-02T20:36:40.187Z,71.60
2019-05-02T20:39:08.459Z,71.50
2019-05-02T20:41:36.724Z,70.80
2019-05-02T20:44:04.943Z,71.60
2019-05-02T20:46:33.190Z,72.70
2019-05-02T20:49:02.048Z,71.60
2019-05-02T20:51:31.896Z,72.30
2019-05-02T20:54:01.991Z,72.70
2019-05-02T20:56:32.097Z,73.00
2019-05-02T20:59:02.052Z,72.30
2019-05-02T21:01:32.186Z,72.20
2019-05-02T21:04:02.576Z,72.00
2019-05-02T21:06:41.351Z,72.10
2019-05-02T21:09:09.755Z,72.00
2019-05-02T21:11:38.158Z,71.50
2019-05-02T21:14:06.411Z,71.30
2019-05-02T21:16:34.654Z,71.00
2019-05-02T21:19:02.926Z,70.90
2019-05-02T21:21:32.503Z,71.00
2019-05-02T21:24:02.091Z,70.40
2019-05-02T21:26:32.638Z,69.80
2019-05-02T21:29:00.446Z,69.90
2019-05-02T21:31:28.771Z,70.20
2019-05-02T21:33:56.997Z,69.80
2019-05-02T21:36:25.260Z,70.00
2019-05-02T21:38:53.491Z,70.00
2019-05-02T21:41:22.173Z,70.50
2019-05-02T21:43:51.869Z,70.20
2019-05-02T21:46:22.169Z,70.10
2019-05-02T21:48:52.498Z,70.20
2019-05-02T21:51:24.762Z,70.00
2019-05-02T21:53:58.421Z,69.90
2019-05-02T21:56:43.524Z,69.90
2019-05-02T21:59:12.547Z,69.70
2019-05-02T22:01:57.102Z,70.00
2019-05-02T22:04:25.381Z,70.00
2019-05-02T22:06:53.642Z,70.00
2019-05-02T22:09:23.159Z,70.30
2019-05-02T22:11:52.242Z,70.20
2019-05-02T22:14:22.302Z,70.90
2019-05-02T22:16:52.675Z,70.40
2019-05-02T22:19:20.892Z,70.30
2019-05-02T22:21:49.151Z,70.00
2019-05-02T22:24:17.415Z,70.50
2019-05-02T22:26:45.710Z,70.30
2019-05-02T22:29:13.994Z,70.70
2019-05-02T22:31:43.076Z,70.40
2019-05-02T22:34:12.813Z,70.90
2019-05-02T22:36:42.314Z,70.90
2019-05-02T22:39:22.204Z,70.30
2019-05-02T22:41:52.478Z,69.60
2019-05-02T22:44:21.882Z,69.80
2019-05-02T22:46:51.964Z,69.80
2019-05-02T22:49:22.334Z,69.80
2019-05-02T22:51:50.395Z,69.80
2019-05-02T22:54:29.976Z,70.00
2019-05-02T22:56:48.616Z,69.40
2019-05-02T22:59:16.938Z,69.30
2019-05-02T23:01:45.355Z,69.70
2019-05-02T23:04:13.666Z,69.40
2019-05-02T23:06:44.163Z,69.50
2019-05-02T23:09:12.645Z,69.40
2019-05-02T23:11:42.606Z,69.40
2019-05-02T23:14:11.098Z,69.30
2019-05-02T23:16:42.322Z,69.10
2019-05-02T23:19:12.017Z,69.60
2019-05-02T23:21:41.926Z,69.20
2019-05-02T23:24:11.719Z,69.40
2019-05-02T23:26:43.284Z,69.40
2019-05-02T23:29:13.221Z,69.50
2019-05-02T23:31:42.299Z,68.80
2019-05-02T23:34:10.647Z,68.30
2019-05-02T23:36:38.929Z,68.20
2019-05-02T23:39:07.431Z,69.10
2019-05-02T23:41:35.686Z,68.10
2019-05-02T23:44:04.039Z,67.50
2019-05-02T23:46:32.389Z,67.10
2019-05-02T23:49:02.055Z,67.40
2019-05-02T23:51:32.057Z,67.40
2019-05-02T23:54:02.076Z,67.40
2019-05-02T23:56:32.545Z,66.80
2019-05-02T23:59:02.739Z,66.90
